Eskdalemuir, United Kingdom
Current Conditions -  °F | °C
As of 8:50 AM on Saturday 22 Nov 2014 (Local Time) from EGOM Reporting Station
Haze Haze  
Wind Chill: 50°   Ceiling: 3000
Heat Index: 50°   Visibility: 5mi
Dew Point: 48°   Wind: 13mph
Humidity: 94%   Direction: 170°S
Pressure: 29.71"   Gusts: NA
Location:  55.27°N, 3.18°W
Report Text: EGOM 220850Z AUTO 17011KT 8000 BR FEW007/// BKN030/// 10/09 Q1006
Loading
Personal Weather Stations






























Interactive Weather Map New forecast layout! Learn more

10-Day Weather Forecast

Advertisements
Track Severe Weather on mobile